sensor_id;sensor_type;location;lat;lon;timestamp;temperature;humidity
975;DHT22;6115;49.296;10.602;2023-02-22T00:03:48;3.10;75.50
975;DHT22;6115;49.296;10.602;2023-02-22T00:08:50;3.10;75.60
975;DHT22;6115;49.296;10.602;2023-02-22T00:13:52;3.00;75.50
975;DHT22;6115;49.296;10.602;2023-02-22T00:18:56;2.90;76.00
975;DHT22;6115;49.296;10.602;2023-02-22T00:23:56;2.90;75.90
975;DHT22;6115;49.296;10.602;2023-02-22T00:28:57;2.80;75.50
975;DHT22;6115;49.296;10.602;2023-02-22T00:33:58;2.80;75.90
975;DHT22;6115;49.296;10.602;2023-02-22T00:38:59;2.80;75.80
975;DHT22;6115;49.296;10.602;2023-02-22T00:44:00;2.70;75.50
975;DHT22;6115;49.296;10.602;2023-02-22T00:49:01;2.60;75.60
975;DHT22;6115;49.296;10.602;2023-02-22T00:54:01;2.60;75.50
975;DHT22;6115;49.296;10.602;2023-02-22T00:59:03;2.60;75.60
975;DHT22;6115;49.296;10.602;2023-02-22T01:04:03;2.40;76.10
975;DHT22;6115;49.296;10.602;2023-02-22T01:09:04;2.50;76.40
975;DHT22;6115;49.296;10.602;2023-02-22T01:14:07;2.50;76.10
975;DHT22;6115;49.296;10.602;2023-02-22T01:19:09;2.40;76.00
975;DHT22;6115;49.296;10.602;2023-02-22T01:24:10;2.30;76.10
975;DHT22;6115;49.296;10.602;2023-02-22T01:29:17;2.30;76.10
975;DHT22;6115;49.296;10.602;2023-02-22T01:34:19;2.20;76.20
975;DHT22;6115;49.296;10.602;2023-02-22T01:39:20;2.20;76.00
975;DHT22;6115;49.296;10.602;2023-02-22T01:44:35;2.10;76.20
975;DHT22;6115;49.296;10.602;2023-02-22T01:49:45;2.10;76.80
975;DHT22;6115;49.296;10.602;2023-02-22T01:54:51;2.10;77.20
975;DHT22;6115;49.296;10.602;2023-02-22T02:00:04;2.10;77.20
975;DHT22;6115;49.296;10.602;2023-02-22T02:05:11;2.10;77.60
975;DHT22;6115;49.296;10.602;2023-02-22T02:10:13;2.10;77.90
975;DHT22;6115;49.296;10.602;2023-02-22T02:15:21;2.10;78.20
975;DHT22;6115;49.296;10.602;2023-02-22T02:42:37;2.40;79.50
975;DHT22;6115;49.296;10.602;2023-02-22T02:47:46;2.30;79.80
975;DHT22;6115;49.296;10.602;2023-02-22T02:52:51;2.20;80.10
975;DHT22;6115;49.296;10.602;2023-02-22T02:57:53;2.10;80.20
975;DHT22;6115;49.296;10.602;2023-02-22T03:14:22;1.80;79.70
975;DHT22;6115;49.296;10.602;2023-02-22T03:19:43;1.80;79.50
975;DHT22;6115;49.296;10.602;2023-02-22T03:24:53;1.70;79.40
975;DHT22;6115;49.296;10.602;2023-02-22T03:30:02;1.60;79.70
975;DHT22;6115;49.296;10.602;2023-02-22T03:35:10;1.60;79.70
975;DHT22;6115;49.296;10.602;2023-02-22T03:40:17;1.50;79.40
975;DHT22;6115;49.296;10.602;2023-02-22T03:45:26;1.50;79.90
975;DHT22;6115;49.296;10.602;2023-02-22T03:50:32;1.50;79.90
975;DHT22;6115;49.296;10.602;2023-02-22T03:55:35;1.40;80.00
975;DHT22;6115;49.296;10.602;2023-02-22T04:00:35;1.30;80.40
975;DHT22;6115;49.296;10.602;2023-02-22T04:05:36;1.30;81.00
975;DHT22;6115;49.296;10.602;2023-02-22T04:10:36;1.40;81.20
975;DHT22;6115;49.296;10.602;2023-02-22T04:15:37;1.30;81.10
975;DHT22;6115;49.296;10.602;2023-02-22T04:20:38;1.30;81.10
975;DHT22;6115;49.296;10.602;2023-02-22T04:25:38;1.30;81.10
975;DHT22;6115;49.296;10.602;2023-02-22T04:30:39;1.20;81.00
975;DHT22;6115;49.296;10.602;2023-02-22T04:35:39;1.10;80.90
975;DHT22;6115;49.296;10.602;2023-02-22T04:40:40;1.10;80.90
975;DHT22;6115;49.296;10.602;2023-02-22T04:45:40;1.10;80.90
975;DHT22;6115;49.296;10.602;2023-02-22T04:50:41;1.10;80.90
975;DHT22;6115;49.296;10.602;2023-02-22T04:55:42;1.00;80.80
975;DHT22;6115;49.296;10.602;2023-02-22T05:00:42;1.10;80.90
975;DHT22;6115;49.296;10.602;2023-02-22T05:05:43;1.20;81.00
975;DHT22;6115;49.296;10.602;2023-02-22T05:10:44;1.20;80.80
975;DHT22;6115;49.296;10.602;2023-02-22T05:15:44;1.20;80.40
975;DHT22;6115;49.296;10.602;2023-02-22T05:20:45;1.10;80.30
975;DHT22;6115;49.296;10.602;2023-02-22T05:25:45;1.10;80.00
975;DHT22;6115;49.296;10.602;2023-02-22T05:30:46;0.90;80.00
975;DHT22;6115;49.296;10.602;2023-02-22T05:35:47;0.90;80.60
975;DHT22;6115;49.296;10.602;2023-02-22T05:40:47;1.00;80.10
975;DHT22;6115;49.296;10.602;2023-02-22T05:45:48;1.00;79.70
975;DHT22;6115;49.296;10.602;2023-02-22T05:50:49;0.90;79.60
975;DHT22;6115;49.296;10.602;2023-02-22T05:55:50;0.90;79.80
975;DHT22;6115;49.296;10.602;2023-02-22T06:00:51;1.00;79.70
975;DHT22;6115;49.296;10.602;2023-02-22T06:05:51;0.90;79.50
975;DHT22;6115;49.296;10.602;2023-02-22T06:10:52;0.90;79.60
975;DHT22;6115;49.296;10.602;2023-02-22T06:15:52;0.90;80.50
975;DHT22;6115;49.296;10.602;2023-02-22T06:20:53;0.90;79.40
975;DHT22;6115;49.296;10.602;2023-02-22T06:25:53;0.90;79.50
975;DHT22;6115;49.296;10.602;2023-02-22T06:30:54;0.80;79.90
975;DHT22;6115;49.296;10.602;2023-02-22T06:35:54;0.80;80.40
975;DHT22;6115;49.296;10.602;2023-02-22T06:40:55;0.80;80.60
975;DHT22;6115;49.296;10.602;2023-02-22T06:45:55;0.90;80.70
975;DHT22;6115;49.296;10.602;2023-02-22T06:50:56;0.90;80.70
975;DHT22;6115;49.296;10.602;2023-02-22T06:55:57;0.90;80.70
975;DHT22;6115;49.296;10.602;2023-02-22T07:00:57;1.00;80.80
975;DHT22;6115;49.296;10.602;2023-02-22T07:05:58;1.00;80.80
975;DHT22;6115;49.296;10.602;2023-02-22T07:10:59;1.10;80.90
975;DHT22;6115;49.296;10.602;2023-02-22T07:15:59;1.10;80.90
975;DHT22;6115;49.296;10.602;2023-02-22T07:21:00;1.20;81.00
975;DHT22;6115;49.296;10.602;2023-02-22T07:26:02;1.30;81.10
975;DHT22;6115;49.296;10.602;2023-02-22T07:31:03;1.30;81.10
975;DHT22;6115;49.296;10.602;2023-02-22T07:36:04;1.40;81.20
975;DHT22;6115;49.296;10.602;2023-02-22T07:41:05;1.50;81.30
975;DHT22;6115;49.296;10.602;2023-02-22T07:46:06;1.70;81.50
975;DHT22;6115;49.296;10.602;2023-02-22T07:51:06;1.80;81.60
975;DHT22;6115;49.296;10.602;2023-02-22T07:56:09;1.90;81.70
975;DHT22;6115;49.296;10.602;2023-02-22T08:01:09;2.10;81.90
975;DHT22;6115;49.296;10.602;2023-02-22T08:06:10;2.20;81.90
975;DHT22;6115;49.296;10.602;2023-02-22T08:11:10;2.50;82.20
975;DHT22;6115;49.296;10.602;2023-02-22T08:16:11;2.60;82.30
975;DHT22;6115;49.296;10.602;2023-02-22T08:21:11;2.90;82.60
975;DHT22;6115;49.296;10.602;2023-02-22T08:26:12;3.20;82.80
975;DHT22;6115;49.296;10.602;2023-02-22T08:31:14;3.40;83.00
975;DHT22;6115;49.296;10.602;2023-02-22T08:36:15;3.70;83.30
975;DHT22;6115;49.296;10.602;2023-02-22T08:41:16;4.00;83.60
975;DHT22;6115;49.296;10.602;2023-02-22T08:46:17;4.40;84.00
975;DHT22;6115;49.296;10.602;2023-02-22T08:51:18;4.80;84.40
975;DHT22;6115;49.296;10.602;2023-02-22T08:56:19;5.20;84.70
975;DHT22;6115;49.296;10.602;2023-02-22T09:01:20;5.70;85.20
975;DHT22;6115;49.296;10.602;2023-02-22T09:06:22;6.10;85.00
975;DHT22;6115;49.296;10.602;2023-02-22T09:11:22;6.70;84.50
975;DHT22;6115;49.296;10.602;2023-02-22T09:16:23;7.20;82.80
975;DHT22;6115;49.296;10.602;2023-02-22T09:21:23;7.80;82.10
975;DHT22;6115;49.296;10.602;2023-02-22T09:26:25;8.30;80.70
975;DHT22;6115;49.296;10.602;2023-02-22T09:31:27;8.90;79.10
975;DHT22;6115;49.296;10.602;2023-02-22T09:36:27;9.50;75.50
975;DHT22;6115;49.296;10.602;2023-02-22T09:41:34;9.90;72.00
975;DHT22;6115;49.296;10.602;2023-02-22T09:46:38;10.50;69.60
975;DHT22;6115;49.296;10.602;2023-02-22T09:56:55;12.60;62.30
975;DHT22;6115;49.296;10.602;2023-02-22T10:12:34;15.50;50.00
975;DHT22;6115;49.296;10.602;2023-02-22T10:23:28;15.90;49.60
975;DHT22;6115;49.296;10.602;2023-02-22T10:28:41;17.20;47.10
975;DHT22;6115;49.296;10.602;2023-02-22T10:33:46;19.10;44.00
975;DHT22;6115;49.296;10.602;2023-02-22T10:38:57;20.00;40.70
975;DHT22;6115;49.296;10.602;2023-02-22T10:43:59;19.60;40.60
975;DHT22;6115;49.296;10.602;2023-02-22T10:49:04;19.90;40.60
975;DHT22;6115;49.296;10.602;2023-02-22T11:04:44;21.30;37.80
975;DHT22;6115;49.296;10.602;2023-02-22T11:09:48;21.20;37.60
975;DHT22;6115;49.296;10.602;2023-02-22T11:14:49;20.00;37.10
975;DHT22;6115;49.296;10.602;2023-02-22T11:19:50;19.70;39.90
975;DHT22;6115;49.296;10.602;2023-02-22T11:24:55;19.80;39.30
975;DHT22;6115;49.296;10.602;2023-02-22T11:30:16;19.80;38.60
975;DHT22;6115;49.296;10.602;2023-02-22T11:35:32;20.80;37.80
975;DHT22;6115;49.296;10.602;2023-02-22T11:40:34;21.30;36.40
975;DHT22;6115;49.296;10.602;2023-02-22T11:45:35;21.50;36.30
975;DHT22;6115;49.296;10.602;2023-02-22T11:56:15;21.70;36.80
975;DHT22;6115;49.296;10.602;2023-02-22T12:22:20;22.00;35.90
975;DHT22;6115;49.296;10.602;2023-02-22T12:27:26;22.60;34.30
975;DHT22;6115;49.296;10.602;2023-02-22T12:32:38;23.20;33.70
975;DHT22;6115;49.296;10.602;2023-02-22T12:38:10;23.20;33.40
975;DHT22;6115;49.296;10.602;2023-02-22T12:43:18;21.30;34.50
975;DHT22;6115;49.296;10.602;2023-02-22T12:59:58;22.10;32.80
975;DHT22;6115;49.296;10.602;2023-02-22T13:05:01;20.80;34.20
975;DHT22;6115;49.296;10.602;2023-02-22T13:16:17;20.30;36.80
975;DHT22;6115;49.296;10.602;2023-02-22T13:21:45;20.80;35.80
975;DHT22;6115;49.296;10.602;2023-02-22T13:26:53;21.20;35.20
975;DHT22;6115;49.296;10.602;2023-02-22T13:32:03;21.40;34.50
975;DHT22;6115;49.296;10.602;2023-02-22T13:37:44;20.70;35.90
975;DHT22;6115;49.296;10.602;2023-02-22T13:53:58;19.70;38.30
975;DHT22;6115;49.296;10.602;2023-02-22T13:59:02;19.30;38.20
975;DHT22;6115;49.296;10.602;2023-02-22T14:09:49;19.20;38.90
975;DHT22;6115;49.296;10.602;2023-02-22T14:25:30;18.90;39.10
975;DHT22;6115;49.296;10.602;2023-02-22T14:30:35;18.80;39.50
975;DHT22;6115;49.296;10.602;2023-02-22T14:35:39;18.30;39.20
975;DHT22;6115;49.296;10.602;2023-02-22T14:40:41;18.10;39.70
975;DHT22;6115;49.296;10.602;2023-02-22T14:46:03;18.40;39.30
975;DHT22;6115;49.296;10.602;2023-02-22T14:51:20;18.20;40.20
975;DHT22;6115;49.296;10.602;2023-02-22T14:56:29;18.10;40.70
975;DHT22;6115;49.296;10.602;2023-02-22T15:01:38;18.10;40.50
975;DHT22;6115;49.296;10.602;2023-02-22T15:06:39;18.10;40.90
975;DHT22;6115;49.296;10.602;2023-02-22T15:11:39;17.90;41.30
975;DHT22;6115;49.296;10.602;2023-02-22T15:16:49;17.50;41.30
975;DHT22;6115;49.296;10.602;2023-02-22T15:21:54;17.50;42.00
975;DHT22;6115;49.296;10.602;2023-02-22T15:26:55;17.20;41.90
975;DHT22;6115;49.296;10.602;2023-02-22T15:37:26;17.30;43.00
975;DHT22;6115;49.296;10.602;2023-02-22T15:42:28;17.20;43.00
975;DHT22;6115;49.296;10.602;2023-02-22T15:47:30;17.00;45.50
975;DHT22;6115;49.296;10.602;2023-02-22T15:52:33;16.90;47.30
975;DHT22;6115;49.296;10.602;2023-02-22T15:57:34;16.60;47.10
975;DHT22;6115;49.296;10.602;2023-02-22T16:02:37;16.30;48.20
975;DHT22;6115;49.296;10.602;2023-02-22T16:07:49;16.10;48.90
975;DHT22;6115;49.296;10.602;2023-02-22T16:13:04;16.00;49.30
975;DHT22;6115;49.296;10.602;2023-02-22T16:18:24;15.80;49.80
975;DHT22;6115;49.296;10.602;2023-02-22T16:23:27;15.50;50.50
975;DHT22;6115;49.296;10.602;2023-02-22T16:28:29;15.40;50.60
975;DHT22;6115;49.296;10.602;2023-02-22T16:33:30;15.30;51.10
975;DHT22;6115;49.296;10.602;2023-02-22T16:38:33;15.10;51.90
975;DHT22;6115;49.296;10.602;2023-02-22T16:43:37;14.80;52.40
975;DHT22;6115;49.296;10.602;2023-02-22T16:48:40;14.60;53.00
975;DHT22;6115;49.296;10.602;2023-02-22T16:53:41;14.50;53.80
975;DHT22;6115;49.296;10.602;2023-02-22T16:58:44;14.30;54.20
975;DHT22;6115;49.296;10.602;2023-02-22T17:03:45;14.10;54.70
975;DHT22;6115;49.296;10.602;2023-02-22T17:08:47;14.00;54.80
975;DHT22;6115;49.296;10.602;2023-02-22T17:13:51;13.90;55.40
975;DHT22;6115;49.296;10.602;2023-02-22T17:18:51;13.80;55.90
975;DHT22;6115;49.296;10.602;2023-02-22T17:23:52;13.70;56.90
975;DHT22;6115;49.296;10.602;2023-02-22T17:28:52;13.60;56.60
975;DHT22;6115;49.296;10.602;2023-02-22T17:33:55;13.50;57.00
975;DHT22;6115;49.296;10.602;2023-02-22T17:39:02;13.40;57.70
975;DHT22;6115;49.296;10.602;2023-02-22T17:44:04;13.20;57.60
975;DHT22;6115;49.296;10.602;2023-02-22T17:49:04;13.00;57.50
975;DHT22;6115;49.296;10.602;2023-02-22T17:54:05;12.90;58.40
975;DHT22;6115;49.296;10.602;2023-02-22T17:59:06;12.80;59.00
975;DHT22;6115;49.296;10.602;2023-02-22T18:04:08;12.60;59.30
975;DHT22;6115;49.296;10.602;2023-02-22T18:09:09;12.40;59.90
975;DHT22;6115;49.296;10.602;2023-02-22T18:14:09;12.20;60.60
975;DHT22;6115;49.296;10.602;2023-02-22T18:19:11;12.00;61.10
975;DHT22;6115;49.296;10.602;2023-02-22T18:24:12;11.90;62.50
975;DHT22;6115;49.296;10.602;2023-02-22T18:29:12;11.60;62.20
975;DHT22;6115;49.296;10.602;2023-02-22T18:34:13;11.50;62.40
975;DHT22;6115;49.296;10.602;2023-02-22T18:39:15;11.40;62.60
975;DHT22;6115;49.296;10.602;2023-02-22T18:44:15;11.20;63.20
975;DHT22;6115;49.296;10.602;2023-02-22T18:49:16;11.20;63.50
975;DHT22;6115;49.296;10.602;2023-02-22T18:54:17;11.10;63.60
975;DHT22;6115;49.296;10.602;2023-02-22T18:59:19;10.90;65.10
975;DHT22;6115;49.296;10.602;2023-02-22T19:04:19;11.00;65.20
975;DHT22;6115;49.296;10.602;2023-02-22T19:09:21;11.00;65.20
975;DHT22;6115;49.296;10.602;2023-02-22T19:14:21;10.90;65.10
975;DHT22;6115;49.296;10.602;2023-02-22T19:19:22;10.70;64.80
975;DHT22;6115;49.296;10.602;2023-02-22T19:24:22;10.50;65.20
975;DHT22;6115;49.296;10.602;2023-02-22T19:29:23;10.50;64.70
975;DHT22;6115;49.296;10.602;2023-02-22T19:34:24;10.40;64.60
975;DHT22;6115;49.296;10.602;2023-02-22T19:39:27;10.30;64.80
975;DHT22;6115;49.296;10.602;2023-02-22T19:44:28;10.10;65.50
975;DHT22;6115;49.296;10.602;2023-02-22T19:49:28;10.00;65.70
975;DHT22;6115;49.296;10.602;2023-02-22T19:54:29;9.90;67.00
975;DHT22;6115;49.296;10.602;2023-02-22T19:59:29;9.80;67.50
975;DHT22;6115;49.296;10.602;2023-02-22T20:04:30;9.80;67.90
975;DHT22;6115;49.296;10.602;2023-02-22T20:09:31;9.70;67.80
975;DHT22;6115;49.296;10.602;2023-02-22T20:14:42;9.50;68.00
975;DHT22;6115;49.296;10.602;2023-02-22T20:19:43;9.40;68.40
975;DHT22;6115;49.296;10.602;2023-02-22T20:24:43;9.30;68.80
975;DHT22;6115;49.296;10.602;2023-02-22T20:29:44;9.10;69.30
975;DHT22;6115;49.296;10.602;2023-02-22T20:34:45;9.00;70.00
975;DHT22;6115;49.296;10.602;2023-02-22T20:39:46;9.00;70.50
975;DHT22;6115;49.296;10.602;2023-02-22T20:44:48;9.10;70.50
975;DHT22;6115;49.296;10.602;2023-02-22T20:49:49;9.00;70.80
975;DHT22;6115;49.296;10.602;2023-02-22T20:54:49;9.00;71.00
975;DHT22;6115;49.296;10.602;2023-02-22T20:59:50;8.90;71.10
975;DHT22;6115;49.296;10.602;2023-02-22T21:04:51;8.80;71.20
975;DHT22;6115;49.296;10.602;2023-02-22T21:09:51;8.80;70.90
975;DHT22;6115;49.296;10.602;2023-02-22T21:14:52;8.70;70.40
975;DHT22;6115;49.296;10.602;2023-02-22T21:19:53;8.70;70.60
975;DHT22;6115;49.296;10.602;2023-02-22T21:24:54;8.50;71.10
975;DHT22;6115;49.296;10.602;2023-02-22T21:29:55;8.50;71.50
975;DHT22;6115;49.296;10.602;2023-02-22T21:34:57;8.50;71.40
975;DHT22;6115;49.296;10.602;2023-02-22T21:39:58;8.40;71.40
975;DHT22;6115;49.296;10.602;2023-02-22T21:44:59;8.40;72.10
975;DHT22;6115;49.296;10.602;2023-02-22T21:50:00;8.30;72.80
975;DHT22;6115;49.296;10.602;2023-02-22T21:55:01;8.30;72.70
975;DHT22;6115;49.296;10.602;2023-02-22T22:00:02;8.40;72.40
975;DHT22;6115;49.296;10.602;2023-02-22T22:05:12;8.40;72.10
975;DHT22;6115;49.296;10.602;2023-02-22T22:10:16;8.50;72.00
975;DHT22;6115;49.296;10.602;2023-02-22T22:15:18;8.50;71.80
975;DHT22;6115;49.296;10.602;2023-02-22T22:20:19;8.40;71.50
975;DHT22;6115;49.296;10.602;2023-02-22T22:25:21;8.40;71.80
975;DHT22;6115;49.296;10.602;2023-02-22T22:30:23;8.40;71.90
975;DHT22;6115;49.296;10.602;2023-02-22T22:35:25;8.30;72.10
975;DHT22;6115;49.296;10.602;2023-02-22T22:40:27;8.30;72.50
975;DHT22;6115;49.296;10.602;2023-02-22T22:45:27;8.30;72.20
975;DHT22;6115;49.296;10.602;2023-02-22T22:50:28;8.30;72.40
975;DHT22;6115;49.296;10.602;2023-02-22T22:55:28;8.30;72.80
975;DHT22;6115;49.296;10.602;2023-02-22T23:00:29;8.20;72.70
975;DHT22;6115;49.296;10.602;2023-02-22T23:05:40;8.30;72.90
975;DHT22;6115;49.296;10.602;2023-02-22T23:10:45;8.20;73.10
975;DHT22;6115;49.296;10.602;2023-02-22T23:15:46;8.20;73.00
975;DHT22;6115;49.296;10.602;2023-02-22T23:20:47;8.30;72.90
975;DHT22;6115;49.296;10.602;2023-02-22T23:26:08;8.30;72.80
975;DHT22;6115;49.296;10.602;2023-02-22T23:31:17;8.40;72.60
975;DHT22;6115;49.296;10.602;2023-02-22T23:36:18;8.40;72.40
975;DHT22;6115;49.296;10.602;2023-02-22T23:41:19;8.30;72.50
975;DHT22;6115;49.296;10.602;2023-02-22T23:46:19;8.10;73.10
975;DHT22;6115;49.296;10.602;2023-02-22T23:51:22;8.20;73.30
975;DHT22;6115;49.296;10.602;2023-02-22T23:56:26;8.30;72.80
